Time;durP1;ratioP1;P1;durP2;ratioP2;P2;SDS_P1;SDS_P2;PMS_P1;PMS_P2;Temp;Humidity;BMP_temperature;BMP_pressure;BME280_temperature;BME280_humidity;BME280_pressure;Samples;Min_cycle;Max_cycle;Signal;HPM_P1;HPM_P2
2021/06/10 00:00:20;;;;;;;14.00;12.80;;;22.00;73.40;;;;;;4956344;29;20917;-89
2021/06/10 00:02:47;;;;;;;11.87;10.93;;;18.80;67.80;;;;;;4938988;29;20570;-89
2021/06/10 00:05:13;;;;;;;13.20;12.20;;;21.20;70.90;;;;;;4939009;29;20569;-89
2021/06/10 00:07:39;;;;;;;12.20;11.30;;;18.70;68.50;;;;;;4955944;29;20470;-89
2021/06/10 00:10:09;;;;;;;12.93;11.90;;;17.40;67.40;;;;;;4955873;29;20430;-89
2021/06/10 00:12:34;;;;;;;13.30;12.50;;;18.50;69.50;;;;;;4956157;29;20407;-88
2021/06/10 00:15:00;;;;;;;15.37;14.20;;;21.30;75.70;;;;;;4938722;29;20430;-88
2021/06/10 00:17:26;;;;;;;14.97;13.53;;;17.30;70.00;;;;;;4955768;28;20635;-88
2021/06/10 00:19:51;;;;;;;16.43;15.13;;;18.20;72.90;;;;;;4955807;29;20181;-88
2021/06/10 00:22:19;;;;;;;13.93;12.73;;;17.90;71.70;;;;;;4955735;29;20175;-89
2021/06/10 00:24:45;;;;;;;14.17;13.17;;;;;;;;;;4955537;29;20173;-88
2021/06/10 00:27:10;;;;;;;13.00;12.10;;;18.20;71.30;;;;;;4955494;29;20553;-88
2021/06/10 00:29:36;;;;;;;14.13;13.10;;;17.80;72.00;;;;;;4955490;29;20913;-88
2021/06/10 00:32:02;;;;;;;11.40;10.70;;;16.40;71.50;;;;;;4938287;29;20515;-89
2021/06/10 00:34:27;;;;;;;12.67;11.87;;;18.10;73.60;;;;;;4955475;29;20172;-89
2021/06/10 00:36:53;;;;;;;13.30;12.50;;;16.80;70.00;;;;;;4938164;29;20186;-87
2021/06/10 00:39:19;;;;;;;9.33;8.53;;;16.00;70.00;;;;;;4955377;29;20175;-88
2021/06/10 00:41:44;;;;;;;10.63;9.57;;;16.30;70.30;;;;;;4955345;29;20475;-89
2021/06/10 00:44:10;;;;;;;11.60;10.90;;;17.70;72.30;;;;;;4955280;29;20167;-88
2021/06/10 00:46:36;;;;;;;11.77;11.07;;;16.70;70.90;;;;;;4955327;29;20248;-88
2021/06/10 00:49:03;;;;;;;12.53;11.50;;;19.90;75.40;;;;;;4938458;29;20185;-88
2021/06/10 00:51:29;;;;;;;13.60;12.80;;;20.90;77.90;;;;;;4938031;29;20528;-89
2021/06/10 00:53:56;;;;;;;12.73;11.73;;;16.80;71.90;;;;;;4955423;29;20422;-89
2021/06/10 00:56:22;;;;;;;13.80;12.93;;;19.60;76.70;;;;;;4938002;29;20426;-89
2021/06/10 00:58:48;;;;;;;12.40;11.40;;;17.40;73.90;;;;;;4954963;29;20921;-89
2021/06/10 01:01:13;;;;;;;12.43;11.60;;;17.70;74.50;;;;;;4955254;29;20418;-88
2021/06/10 01:03:39;;;;;;;11.30;10.60;;;17.20;72.90;;;;;;4955150;29;20186;-89
2021/06/10 01:06:16;;;;;;;11.00;10.40;;;17.00;72.30;;;;;;4955057;29;20523;-89
2021/06/10 01:08:51;;;;;;;9.70;9.10;;;17.90;72.40;;;;;;4938250;29;20221;-89
2021/06/10 01:11:35;;;;;;;9.20;8.60;;;18.00;70.60;;;;;;4955041;29;20476;-89
2021/06/10 01:14:03;;;;;;;8.77;8.20;;;17.90;69.80;;;;;;4938039;29;20418;-89
2021/06/10 01:16:32;;;;;;;8.40;7.77;;;17.80;70.80;;;;;;4950217;29;20426;-89
2021/06/10 01:19:06;;;;;;;8.20;7.90;;;17.80;70.70;;;;;;4978393;28;20423;-89
2021/06/10 01:21:32;;;;;;;8.80;8.40;;;19.30;74.70;;;;;;4959599;29;20437;-89
2021/06/10 01:24:08;;;;;;;9.20;8.77;;;17.60;73.50;;;;;;4968370;29;20414;-88
2021/06/10 01:26:44;;;;;;;10.23;9.53;;;17.70;73.40;;;;;;4957021;29;20225;-89
2021/06/10 01:29:12;;;;;;;10.00;9.07;;;16.60;71.60;;;;;;4958340;28;20473;-89
2021/06/10 01:31:40;;;;;;;9.10;8.53;;;16.80;71.90;;;;;;4961976;29;20414;-89
2021/06/10 01:34:07;;;;;;;7.67;7.17;;;16.10;71.00;;;;;;4960538;29;20424;-89
2021/06/10 01:36:40;;;;;;;7.73;7.17;;;17.40;73.00;;;;;;4961451;29;20984;-89
2021/06/10 01:39:09;;;;;;;11.80;10.60;;;16.50;71.00;;;;;;4958959;29;20514;-89
2021/06/10 01:41:35;;;;;;;9.70;9.20;;;17.30;74.70;;;;;;4958698;29;20414;-89
2021/06/10 01:44:02;;;;;;;10.20;9.60;;;20.00;78.70;;;;;;4959295;29;20414;-89
2021/06/10 01:46:30;;;;;;;10.47;9.53;;;17.00;74.00;;;;;;4943351;29;20426;-89
2021/06/10 01:48:58;;;;;;;11.73;10.83;;;17.60;75.10;;;;;;4958565;29;20422;-89
2021/06/10 01:51:26;;;;;;;12.00;11.10;;;17.40;75.10;;;;;;4958522;29;20549;-88
2021/06/10 01:53:53;;;;;;;10.73;9.93;;;17.20;75.70;;;;;;4959314;29;20437;-88
2021/06/10 01:56:22;;;;;;;10.83;10.10;;;17.00;76.50;;;;;;4964617;29;20462;-88
2021/06/10 01:58:49;;;;;;;11.57;10.70;;;17.10;76.60;;;;;;4964455;29;20422;-89
2021/06/10 02:01:15;;;;;;;9.20;8.73;;;16.90;76.80;;;;;;4965181;29;20494;-88
2021/06/10 02:03:43;;;;;;;10.80;9.93;;;17.00;76.40;;;;;;4959880;29;20441;-89
2021/06/10 02:06:09;;;;;;;9.07;8.57;;;16.50;76.50;;;;;;4958343;29;20497;-89
2021/06/10 02:08:37;;;;;;;10.83;9.53;;;17.50;78.70;;;;;;4958203;29;20473;-89
2021/06/10 02:11:04;;;;;;;9.63;8.90;;;16.80;78.40;;;;;;4958178;29;20480;-89
2021/06/10 02:13:31;;;;;;;10.87;9.53;;;16.90;77.50;;;;;;4958148;29;20451;-89
2021/06/10 02:16:02;;;;;;;11.57;10.67;;;16.70;76.60;;;;;;4957916;29;20489;-89
2021/06/10 02:18:28;;;;;;;10.77;10.00;;;16.70;77.00;;;;;;4958182;29;20466;-89
2021/06/10 02:20:54;;;;;;;9.93;9.43;;;16.90;77.90;;;;;;4958008;29;20780;-89
2021/06/10 02:23:19;;;;;;;10.30;9.80;;;16.90;77.40;;;;;;4957889;29;20229;-89
2021/06/10 02:25:45;;;;;;;10.27;9.67;;;16.70;76.00;;;;;;4957963;29;20198;-89
2021/06/10 02:28:11;;;;;;;10.63;9.70;;;15.80;74.80;;;;;;4957847;29;20217;-88
2021/06/10 02:30:37;;;;;;;10.10;9.60;;;16.90;76.50;;;;;;4614135;28;9999650;-89
2021/06/10 02:33:02;;;;;;;10.57;9.73;;;16.10;75.10;;;;;;4955772;29;20176;-89
2021/06/10 02:35:28;;;;;;;9.90;9.40;;;18.10;78.10;;;;;;4955505;29;20183;-89
2021/06/10 02:37:58;;;;;;;11.10;10.20;;;16.80;76.10;;;;;;4938737;29;20670;-89
2021/06/10 02:40:33;;;;;;;10.37;9.77;;;16.80;76.60;;;;;;4955204;28;20642;-89
2021/06/10 02:43:03;;;;;;;11.83;10.90;;;16.90;77.00;;;;;;4955502;29;20444;-89
2021/06/10 02:45:29;;;;;;;11.90;11.20;;;16.60;76.70;;;;;;4955365;29;20426;-89
2021/06/10 02:47:57;;;;;;;11.27;10.50;;;16.80;78.20;;;;;;4954979;29;20470;-89
2021/06/10 02:50:25;;;;;;;13.07;11.30;;;16.80;79.10;;;;;;4955029;29;20457;-89
2021/06/10 02:52:51;;;;;;;11.93;11.13;;;16.30;78.30;;;;;;4955200;29;20506;-89
2021/06/10 02:55:19;;;;;;;12.80;11.90;;;16.40;77.40;;;;;;4955130;29;20409;-89
2021/06/10 02:57:48;;;;;;;12.60;11.80;;;18.10;80.60;;;;;;4955389;29;20509;-89
2021/06/10 03:00:15;;;;;;;12.47;11.37;;;15.60;77.40;;;;;;4968016;29;20413;-89
2021/06/10 03:02:41;;;;;;;12.23;11.53;;;16.60;80.30;;;;;;4955477;29;20562;-89
2021/06/10 03:05:08;;;;;;;11.30;10.70;;;16.60;80.50;;;;;;4979555;28;20394;-88
2021/06/10 03:07:36;;;;;;;13.00;11.87;;;16.50;81.00;;;;;;4978865;29;20457;-89
2021/06/10 03:10:03;;;;;;;12.43;11.63;;;18.00;83.50;;;;;;4960644;29;20427;-88
2021/06/10 03:12:29;;;;;;;14.03;13.13;;;16.40;81.90;;;;;;4957312;29;20418;-88
2021/06/10 03:14:56;;;;;;;12.87;12.07;;;15.60;81.80;;;;;;4957198;29;20449;-89
2021/06/10 03:17:22;;;;;;;13.17;12.13;;;15.60;81.60;;;;;;4957188;29;20421;-88
2021/06/10 03:19:49;;;;;;;12.60;11.73;;;15.70;81.10;;;;;;4956846;29;20403;-88
2021/06/10 03:22:15;;;;;;;13.00;12.00;;;16.70;82.40;;;;;;4956991;29;20429;-88
2021/06/10 03:24:42;;;;;;;12.37;11.67;;;15.30;80.80;;;;;;4957097;29;20497;-88
2021/06/10 03:27:09;;;;;;;12.87;12.03;;;15.10;80.80;;;;;;4940367;29;20474;-85
2021/06/10 03:29:35;;;;;;;14.53;12.03;;;15.80;82.10;;;;;;4956775;29;20410;-89
2021/06/10 03:32:01;;;;;;;14.90;13.50;;;15.90;83.40;;;;;;4939791;29;20430;-89
2021/06/10 03:34:28;;;;;;;13.53;11.90;;;16.00;83.80;;;;;;4956622;29;20833;-88
2021/06/10 03:36:56;;;;;;;15.37;14.00;;;19.10;90.10;;;;;;4939439;29;20454;-88
2021/06/10 03:39:23;;;;;;;14.10;13.10;;;14.50;80.20;;;;;;4939740;29;20422;-88
2021/06/10 03:41:51;;;;;;;14.23;13.33;;;19.20;87.50;;;;;;4956432;29;20907;-89
2021/06/10 03:44:17;;;;;;;15.57;14.13;;;15.50;83.20;;;;;;4939158;29;20423;-88
2021/06/10 03:46:42;;;;;;;14.73;13.43;;;15.90;84.50;;;;;;4939236;29;21003;-89
2021/06/10 03:49:11;;;;;;;17.13;15.67;;;14.50;85.60;;;;;;4939512;29;20423;-88
2021/06/10 03:51:36;;;;;;;16.80;15.33;;;15.40;86.70;;;;;;4955729;28;20339;-88
2021/06/10 03:54:04;;;;;;;15.13;14.03;;;15.00;86.30;;;;;;4956145;29;20411;-89
2021/06/10 03:56:29;;;;;;;14.73;13.63;;;15.90;87.80;;;;;;4956297;29;20635;-89
2021/06/10 03:58:55;;;;;;;11.80;10.97;;;15.10;87.90;;;;;;4956502;29;20485;-88
2021/06/10 04:01:20;;;;;;;14.30;13.30;;;15.10;89.60;;;;;;4938929;29;20623;-89
2021/06/10 04:03:46;;;;;;;15.70;14.13;;;15.40;90.70;;;;;;4956063;29;20171;-89
2021/06/10 04:06:12;;;;;;;12.83;11.93;;;16.00;91.80;;;;;;4956634;29;20178;-89
2021/06/10 04:08:38;;;;;;;13.00;12.10;;;15.30;91.00;;;;;;4956813;29;20564;-88
2021/06/10 04:11:04;;;;;;;13.23;12.10;;;15.20;89.40;;;;;;4947036;29;20426;-87
2021/06/10 04:13:29;;;;;;;14.47;13.30;;;15.00;88.00;;;;;;4961230;29;20221;-88
2021/06/10 04:15:55;;;;;;;13.70;12.80;;;;;;;;;;4960174;29;20189;-89
2021/06/10 04:18:21;;;;;;;16.57;15.17;;;15.90;88.10;;;;;;4965742;29;20181;-88
2021/06/10 04:20:47;;;;;;;17.20;15.73;;;15.30;89.40;;;;;;4957897;29;20410;-88
2021/06/10 04:23:13;;;;;;;17.40;15.97;;;15.50;90.00;;;;;;4956403;29;20174;-89
2021/06/10 04:25:39;;;;;;;15.10;14.00;;;15.20;89.60;;;;;;4939046;29;20773;-90
2021/06/10 04:28:05;;;;;;;16.10;15.00;;;15.80;90.30;;;;;;4956565;29;20521;-89
2021/06/10 04:30:31;;;;;;;17.60;15.67;;;15.60;90.60;;;;;;4956251;29;20170;-88
2021/06/10 04:32:56;;;;;;;16.80;15.43;;;16.00;90.60;;;;;;4955670;29;20174;-88
2021/06/10 04:35:22;;;;;;;17.37;15.93;;;;;;;;;;4955699;29;20480;-88
2021/06/10 04:37:48;;;;;;;17.07;15.50;;;16.40;86.70;;;;;;4956172;29;20245;-88
2021/06/10 04:40:14;;;;;;;17.47;16.03;;;16.30;86.90;;;;;;4955775;29;20411;-89
2021/06/10 04:42:42;;;;;;;18.83;17.33;;;16.80;88.30;;;;;;4956406;29;20654;-88
2021/06/10 04:45:10;;;;;;;17.50;15.90;;;16.70;99.90;;;;;;4955831;29;20403;-89
2021/06/10 04:47:35;;;;;;;20.17;17.90;;;17.00;99.90;;;;;;4955767;29;20473;-89
2021/06/10 04:50:01;;;;;;;16.33;15.23;;;17.20;96.50;;;;;;4955336;29;20454;-89
2021/06/10 04:52:27;;;;;;;16.20;14.60;;;17.40;97.20;;;;;;4955850;29;20515;-89
2021/06/10 04:54:53;;;;;;;14.60;13.40;;;18.70;92.00;;;;;;4955675;29;20417;-89
2021/06/10 04:57:18;;;;;;;16.40;14.87;;;17.90;90.30;;;;;;4939050;29;20170;-88
2021/06/10 04:59:44;;;;;;;14.97;13.67;;;18.00;85.30;;;;;;4955729;29;20171;-89
2021/06/10 05:02:09;;;;;;;16.00;14.80;;;18.00;81.80;;;;;;4955138;29;20197;-88
2021/06/10 05:04:35;;;;;;;15.43;14.07;;;17.90;78.50;;;;;;4955405;29;20188;-88
2021/06/10 05:07:01;;;;;;;103.47;31.60;;;18.80;78.90;;;;;;4955779;29;20692;-88
2021/06/10 05:09:26;;;;;;;332.93;80.13;;;20.20;76.80;;;;;;4955703;29;20522;-88
2021/06/10 05:11:52;;;;;;;14.53;13.33;;;19.60;74.10;;;;;;4956912;29;20171;-87
2021/06/10 05:14:19;;;;;;;13.40;12.03;;;19.10;71.80;;;;;;4938892;29;20204;-88
2021/06/10 05:16:47;;;;;;;15.93;13.57;;;20.10;70.50;;;;;;4938596;29;20183;-88
2021/06/10 05:19:13;;;;;;;22.63;14.80;;;19.10;67.30;;;;;;4955829;29;20953;-88
2021/06/10 05:21:40;;;;;;;41.37;19.20;;;20.50;67.80;;;;;;4956375;29;20422;-87
2021/06/10 05:24:08;;;;;;;21.47;15.50;;;21.00;63.50;;;;;;4956827;29;20167;-88
2021/06/10 05:26:35;;;;;;;14.13;13.00;;;21.10;64.90;;;;;;4948708;29;20439;-88
2021/06/10 05:29:02;;;;;;;11.87;10.90;;;21.20;63.50;;;;;;4972141;29;20432;-88
2021/06/10 05:31:28;;;;;;;12.80;11.90;;;21.30;63.70;;;;;;4949624;29;20453;-88
2021/06/10 05:33:53;;;;;;;12.80;11.70;;;21.20;63.00;;;;;;4956876;29;20421;-87
2021/06/10 05:36:19;;;;;;;13.23;12.33;;;21.40;62.10;;;;;;4956896;29;20175;-89
2021/06/10 05:38:45;;;;;;;14.60;13.47;;;21.70;62.10;;;;;;4956415;29;20198;-88
2021/06/10 05:41:10;;;;;;;14.30;13.17;;;24.80;68.10;;;;;;4938614;29;20202;-85
2021/06/10 05:43:36;;;;;;;14.40;13.40;;;22.20;61.00;;;;;;4955914;29;20167;-89
2021/06/10 05:46:02;;;;;;;15.97;14.70;;;22.90;59.50;;;;;;4955586;29;20185;-87
2021/06/10 05:48:28;;;;;;;15.73;14.43;;;22.40;58.70;;;;;;4955447;29;20949;-87
2021/06/10 05:50:54;;;;;;;15.97;14.60;;;23.30;57.60;;;;;;4955944;29;20458;-88
2021/06/10 05:53:19;;;;;;;16.27;14.70;;;23.20;56.90;;;;;;4955412;29;20210;-89
2021/06/10 05:55:48;;;;;;;15.77;14.43;;;26.50;58.50;;;;;;4959915;29;20201;-93
2021/06/10 05:58:20;;;;;;;14.37;13.23;;;23.90;54.00;;;;;;4944448;29;20183;-94
2021/06/10 06:00:46;;;;;;;15.83;14.63;;;24.30;69.10;;;;;;4945528;29;20431;-92
2021/06/10 06:03:16;;;;;;;16.17;14.97;;;;;;;;;;4944421;29;20507;-94
2021/06/10 06:09:22;;;;;;;14.40;13.10;;;;;;;;;;4932660;28;20506;-95
2021/06/10 06:12:09;;;;;;;14.50;13.23;;;;;;;;;;4945282;29;20506;-94
2021/06/10 06:14:37;;;;;;;17.40;13.90;;;;;;;;;;4942516;29;20454;-91
2021/06/10 06:20:06;;;;;;;23.73;17.47;;;;;;;;;;4945880;29;20547;-91
2021/06/10 06:23:20;;;;;;;14.20;13.30;;;;;;;;;;4948103;29;20512;-93
2021/06/10 06:25:46;;;;;;;16.23;14.83;;;;;;;;;;4911549;29;20419;-94
2021/06/10 06:28:58;;;;;;;15.23;14.07;;;;;;;;;;4949498;29;20467;-92
2021/06/10 06:31:24;;;;;;;16.90;15.53;;;;;;;;;;4931387;29;20444;-93
2021/06/10 06:33:51;;;;;;;17.23;15.83;;;;;;;;;;4956280;29;20423;-92
2021/06/10 06:36:18;;;;;;;17.50;16.00;;;;;;;;;;4954266;29;20424;-94
2021/06/10 06:38:47;;;;;;;16.43;15.20;;;;;;;;;;4949565;29;20427;-90
2021/06/10 06:41:26;;;;;;;15.27;14.07;;;;;;;;;;4949199;29;20403;-91
2021/06/10 06:43:58;;;;;;;16.23;14.83;;;;;;;;;;4954114;29;20415;-95
2021/06/10 06:46:24;;;;;;;15.23;13.93;;;;;;;;;;4950573;29;20415;-94
2021/06/10 06:48:50;;;;;;;12.60;11.60;;;;;;;;;;4949861;29;20463;-90
2021/06/10 06:54:05;;;;;;;10.20;9.30;;;;;;;;;;4961640;23;20489;-95
2021/06/10 06:56:34;;;;;;;24.33;17.13;;;;;;;;;;4946189;29;20429;-90
2021/06/10 06:59:00;;;;;;;10.53;9.43;;;;;;;;;;4930555;29;20430;-94
2021/06/10 07:01:26;;;;;;;8.60;8.00;;;;;;;;;;4947113;28;20437;-89
2021/06/10 07:03:52;;;;;;;12.47;11.17;;;;;;;;;;4977494;28;20470;-94
2021/06/10 07:06:18;;;;;;;9.20;7.87;;;;;;;;;;4960878;29;20442;-96
2021/06/10 07:08:44;;;;;;;9.70;8.80;;;;;;;;;;4957531;29;20481;-95
2021/06/10 07:11:12;;;;;;;8.30;7.60;;;;;;;;;;4946118;29;20781;-96
2021/06/10 07:13:38;;;;;;;9.03;8.17;;;;;;;;;;4973471;28;20414;-87
2021/06/10 07:16:10;;;;;;;9.13;8.23;;;;;;;;;;4972262;28;20414;-88
2021/06/10 07:18:38;;;;;;;6.90;6.47;;;;;;;;;;5009783;23;20497;-92
2021/06/10 07:21:05;;;;;;;7.83;6.73;;;;;;;;;;4973013;28;20414;-90
2021/06/10 07:23:36;;;;;;;6.50;6.20;;;;;;;;;;4955545;28;20502;-93
2021/06/10 07:26:04;;;;;;;6.40;6.10;;;;;;;;;;4954219;28;20422;-94
2021/06/10 07:28:30;;;;;;;6.23;5.83;;;;;;;;;;4950733;28;20474;-92
2021/06/10 07:30:57;;;;;;;5.87;5.60;;;;;;;;;;4951365;29;20407;-88
2021/06/10 07:33:26;;;;;;;4.70;4.50;;;;;;;;;;4952533;29;20441;-94
2021/06/10 07:35:52;;;;;;;5.13;4.70;;;;;;;;;;4957970;28;20465;-93
2021/06/10 07:38:18;;;;;;;4.03;3.93;;;;;;;;;;4958675;28;20427;-90
2021/06/10 07:40:45;;;;;;;4.50;4.40;;;;;;;;;;4975471;28;20589;-91
2021/06/10 07:43:10;;;;;;;4.13;3.97;;;;;;;;;;4958378;28;20430;-94
2021/06/10 07:45:40;;;;;;;6.50;4.40;;;;;;;;;;5153157;23;20570;-92
2021/06/10 07:50:45;;;;;;;4.33;4.13;;;;;;;;;;4969573;23;20485;-93
2021/06/10 07:53:11;;;;;;;4.37;4.27;;;;;;;;;;4949877;28;20418;-87
2021/06/10 07:55:38;;;;;;;3.80;3.60;;;;;;;;;;4965249;29;21003;-91
2021/06/10 07:58:09;;;;;;;4.07;3.97;;;;;;;;;;4964613;29;20414;-88
2021/06/10 08:00:37;;;;;;;4.07;3.87;;;;;;;;;;4946339;29;20426;-92
2021/06/10 08:03:04;;;;;;;3.20;3.20;;;;;;;;;;4965825;29;20437;-89
2021/06/10 08:05:31;;;;;;;3.57;3.47;;;;;;;;;;4956857;29;20474;-88
2021/06/10 08:07:57;;;;;;;4.40;4.10;;;;;;;;;;4966952;29;20596;-91
2021/06/10 08:10:27;;;;;;;3.90;3.80;;;;;;;;;;4948734;29;20823;-93
2021/06/10 08:12:58;;;;;;;3.17;3.10;;;;;;;;;;4945171;29;20480;-91
2021/06/10 08:15:24;;;;;;;2.80;2.70;;;;;;;;;;4962799;29;20469;-92
2021/06/10 08:17:50;;;;;;;3.70;3.50;;;;;;;;;;4960237;29;20473;-91
2021/06/10 08:20:18;;;;;;;3.13;3.13;;;;;;;;;;4942231;29;20414;-92
2021/06/10 08:22:44;;;;;;;4.53;4.23;;;;;;;;;;4959330;29;20414;-93
2021/06/10 08:25:10;;;;;;;4.10;3.90;;;;;;;;;;4961852;29;20457;-90
2021/06/10 08:27:37;;;;;;;3.50;3.40;;;;;;;;;;4945509;29;21036;-91
2021/06/10 08:30:04;;;;;;;3.80;3.60;;;;;;;;;;4942763;29;20473;-90
2021/06/10 08:32:30;;;;;;;4.00;3.80;;;;;;;;;;4958855;29;20414;-93
2021/06/10 08:34:58;;;;;;;5.60;5.23;;;;;;;;;;4943986;29;20415;-91
2021/06/10 08:37:24;;;;;;;4.33;4.13;;;;;;;;;;4941038;29;20469;-91
2021/06/10 08:39:50;;;;;;;5.00;4.63;;;;;;;;;;4959032;29;20415;-91
2021/06/10 08:42:16;;;;;;;4.00;3.90;;;;;;;;;;4941664;29;20415;-90
2021/06/10 08:44:43;;;;;;;3.87;3.67;;;;;;;;;;4959925;29;20411;-90
2021/06/10 08:47:10;;;;;;;4.27;4.13;;;;;;;;;;4945684;29;20458;-90
2021/06/10 08:49:37;;;;;;;4.20;4.07;;;;;;;;;;4944456;29;20515;-91
2021/06/10 08:52:06;;;;;;;3.07;3.07;;;;;;;;;;4943552;29;20418;-89
2021/06/10 08:54:32;;;;;;;3.90;3.80;;;;;;;;;;4962400;29;20415;-91
2021/06/10 08:56:59;;;;;;;4.70;4.33;;;;;;;;;;4942979;29;20423;-93
2021/06/10 08:59:26;;;;;;;4.80;4.50;;;;;;;;;;4943707;29;20468;-89
2021/06/10 09:01:54;;;;;;;3.90;3.70;;;;;;;;;;4960046;29;20422;-89
2021/06/10 09:04:20;;;;;;;4.57;4.37;;;;;;;;;;4943411;29;20457;-90
2021/06/10 09:06:50;;;;;;;4.43;4.33;;;;;;;;;;4965896;29;20414;-89
2021/06/10 09:09:20;;;;;;;3.90;3.80;;;;;;;;;;4964460;29;20469;-87
2021/06/10 09:11:46;;;;;;;4.90;4.70;;;;;;;;;;4962318;29;20406;-88
2021/06/10 09:14:12;;;;;;;4.17;3.97;;;;;;;;;;4956411;29;20469;-89
2021/06/10 09:16:39;;;;;;;5.07;4.67;;;;;;;;;;4956159;29;20438;-87
2021/06/10 09:19:15;;;;;;;3.90;3.70;;;;;;;;;;4956744;29;20542;-87
2021/06/10 09:21:48;;;;;;;4.30;4.10;;;;;;;;;;4955621;29;20418;-91
2021/06/10 09:24:24;;;;;;;3.70;3.50;;;;;;;;;;4956212;29;20410;-88
2021/06/10 09:26:57;;;;;;;3.67;3.53;;;;;;;;;;4271654;28;10000650;-89
2021/06/10 09:29:41;;;;;;;4.67;4.33;;;;;;;;;;4956201;28;20592;-89
2021/06/10 09:32:22;;;;;;;3.83;3.73;;;;;;;;;;4954373;29;20437;-90
2021/06/10 09:34:59;;;;;;;3.50;3.40;;;;;;;;;;4941414;29;20520;-89
2021/06/10 09:37:30;;;;;;;3.57;3.37;;;;;;;;;;4960336;29;20440;-86
2021/06/10 09:39:56;;;;;;;3.70;3.50;;;;;;;;;;4960445;29;20781;-89
2021/06/10 09:42:26;;;;;;;3.90;3.67;;;;;;;;;;4962113;28;20410;-89
2021/06/10 09:44:57;;;;;;;4.07;3.87;;;;;;;;;;4942565;29;20442;-90
2021/06/10 09:47:36;;;;;;;3.03;2.80;;;;;;;;;;4942639;29;20473;-91
2021/06/10 09:50:14;;;;;;;3.80;3.60;;;;;;;;;;4950988;29;20480;-89
2021/06/10 09:53:02;;;;;;;3.37;2.70;;;;;;;;;;4941844;29;20425;-87
2021/06/10 09:55:46;;;;;;;3.20;3.00;;;38.40;26.90;;;;;;4941293;29;20448;-91
2021/06/10 09:58:25;;;;;;;3.17;3.17;;;38.30;27.10;;;;;;4944590;29;20426;-90
2021/06/10 10:00:57;;;;;;;3.17;3.07;;;37.90;27.30;;;;;;4965411;29;20553;-91
2021/06/10 10:03:23;;;;;;;3.13;3.13;;;37.60;27.70;;;;;;4965870;29;20422;-91
2021/06/10 10:05:49;;;;;;;3.27;3.17;;;37.40;28.40;;;;;;4962125;29;20427;-89
2021/06/10 10:08:15;;;;;;;4.13;3.97;;;37.50;27.60;;;;;;4961475;29;20505;-92
2021/06/10 10:10:42;;;;;;;3.50;3.40;;;35.40;28.20;;;;;;4942323;29;20437;-90
2021/06/10 10:13:10;;;;;;;3.50;3.40;;;34.90;28.50;;;;;;4959563;29;20422;-91
2021/06/10 10:15:37;;;;;;;3.60;3.50;;;35.50;29.20;;;;;;4958995;28;20418;-89
2021/06/10 10:18:04;;;;;;;3.77;3.67;;;34.20;29.10;;;;;;4959024;29;20426;-87
2021/06/10 10:20:30;;;;;;;3.00;3.00;;;33.10;29.50;;;;;;4960587;29;20441;-90
2021/06/10 10:22:56;;;;;;;6.53;6.17;;;33.80;29.50;;;;;;4942868;29;20433;-88
2021/06/10 10:25:22;;;;;;;3.70;3.50;;;33.80;30.20;;;;;;4963326;29;20422;-89
2021/06/10 10:27:50;;;;;;;3.70;3.60;;;33.80;29.70;;;;;;4616946;28;10000579;-89
2021/06/10 10:30:20;;;;;;;4.17;4.13;;;34.10;29.60;;;;;;4961498;29;20178;-89
2021/06/10 10:32:46;;;;;;;4.40;4.30;;;34.60;29.70;;;;;;4942861;29;20462;-90
2021/06/10 10:35:27;;;;;;;3.53;3.43;;;35.20;29.10;;;;;;4959586;29;20414;-89
2021/06/10 10:37:55;;;;;;;3.37;3.27;;;35.80;28.90;;;;;;4941413;29;20233;-90
2021/06/10 10:40:28;;;;;;;3.37;3.27;;;37.00;28.30;;;;;;4939593;29;20430;-89
2021/06/10 10:42:55;;;;;;;3.87;3.67;;;36.90;27.80;;;;;;4961452;29;20415;-91
2021/06/10 10:45:29;;;;;;;4.30;4.20;;;36.80;27.60;;;;;;4958686;28;20909;-90
2021/06/10 10:47:59;;;;;;;3.50;3.40;;;37.50;27.40;;;;;;4943710;29;20473;-90
2021/06/10 10:50:44;;;;;;;4.40;4.10;;;37.20;27.00;;;;;;4941811;29;20482;-91
2021/06/10 10:53:26;;;;;;;4.97;4.77;;;37.50;27.30;;;;;;4944011;29;20419;-87
2021/06/10 10:56:13;;;;;;;4.67;4.37;;;37.70;27.40;;;;;;4941699;29;20785;-88
2021/06/10 10:58:39;;;;;;;5.13;4.93;;;38.20;27.00;;;;;;4944034;29;20419;-90
2021/06/10 11:01:08;;;;;;;4.00;3.90;;;37.90;26.60;;;;;;4939786;29;20419;-88
2021/06/10 11:03:42;;;;;;;4.17;4.10;;;38.90;27.60;;;;;;4940699;29;20434;-92
2021/06/10 11:06:26;;;;;;;4.57;4.47;;;37.90;26.60;;;;;;4943612;29;20514;-87
2021/06/10 11:09:11;;;;;;;5.03;4.90;;;38.20;26.80;;;;;;4942940;29;20494;-89
2021/06/10 11:11:56;;;;;;;5.00;4.80;;;37.90;26.60;;;;;;4943334;29;20915;-87
2021/06/10 11:14:37;;;;;;;4.33;4.03;;;38.30;26.30;;;;;;4940959;29;20423;-89
2021/06/10 11:17:21;;;;;;;19.83;16.40;;;39.00;26.70;;;;;;4940662;29;20510;-91
2021/06/10 11:20:05;;;;;;;13.33;11.93;;;38.20;26.70;;;;;;4941026;29;20466;-92
2021/06/10 11:22:34;;;;;;;7.37;6.30;;;38.20;26.70;;;;;;4942045;29;20947;-89
2021/06/10 11:25:02;;;;;;;5.70;5.40;;;38.30;26.60;;;;;;4947406;29;20403;-89
2021/06/10 11:27:35;;;;;;;5.70;5.60;;;39.00;26.70;;;;;;4933055;29;20474;-89
2021/06/10 11:30:13;;;;;;;5.43;5.17;;;38.90;27.20;;;;;;4951683;29;20399;-91
2021/06/10 11:33:01;;;;;;;5.20;5.00;;;39.20;26.40;;;;;;4949532;29;20792;-90
2021/06/10 11:35:28;;;;;;;5.83;5.53;;;39.00;25.60;;;;;;4948720;29;20427;-87
2021/06/10 11:38:02;;;;;;;4.43;4.33;;;39.70;26.10;;;;;;4949971;29;20411;-90
2021/06/10 11:40:28;;;;;;;5.90;5.50;;;39.10;26.40;;;;;;4948263;29;20822;-90
2021/06/10 11:42:54;;;;;;;6.30;6.00;;;39.30;27.50;;;;;;4949754;29;20883;-90
2021/06/10 11:45:26;;;;;;;6.87;6.53;;;39.20;26.80;;;;;;4950940;28;20484;-89
2021/06/10 11:47:53;;;;;;;5.90;5.60;;;38.40;26.50;;;;;;4950658;29;20225;-88
2021/06/10 11:50:27;;;;;;;6.03;5.77;;;37.60;27.30;;;;;;4961162;29;20450;-88
2021/06/10 11:53:17;;;;;;;5.70;5.30;;;37.50;27.70;;;;;;4958354;29;20421;-89
2021/06/10 11:55:44;;;;;;;10.13;8.03;;;37.40;28.10;;;;;;4959246;29;20423;-92
2021/06/10 11:58:12;;;;;;;6.30;6.03;;;35.50;28.40;;;;;;4943935;29;20458;-90
2021/06/10 12:00:42;;;;;;;6.60;6.00;;;36.10;28.60;;;;;;4942461;29;20461;-89
2021/06/10 12:03:19;;;;;;;6.77;6.17;;;36.80;28.10;;;;;;4963479;29;20433;-91
2021/06/10 12:05:52;;;;;;;5.97;5.70;;;37.50;28.40;;;;;;4956522;28;20410;-92
2021/06/10 12:08:22;;;;;;;5.43;5.23;;;37.80;27.90;;;;;;4947340;29;20546;-88
2021/06/10 12:11:03;;;;;;;5.47;4.97;;;38.20;27.50;;;;;;4938986;29;20421;-91
2021/06/10 12:13:37;;;;;;;5.10;4.80;;;38.50;27.80;;;;;;4937322;29;20449;-88
2021/06/10 12:16:08;;;;;;;4.70;4.40;;;38.40;27.60;;;;;;4937544;29;20411;-88
2021/06/10 12:18:35;;;;;;;4.33;4.10;;;38.90;27.20;;;;;;4937773;29;20817;-89
2021/06/10 12:21:09;;;;;;;5.23;4.90;;;38.80;26.80;;;;;;4939223;29;20422;-90
2021/06/10 12:23:40;;;;;;;4.70;4.60;;;38.40;27.70;;;;;;4938247;29;20430;-89
2021/06/10 12:26:07;;;;;;;5.10;5.00;;;37.80;27.40;;;;;;4939110;29;20395;-88
2021/06/10 12:29:01;;;;;;;6.53;6.10;;;37.80;27.50;;;;;;4949276;28;20522;-93
2021/06/10 12:34:33;;;;;;;4.87;4.67;;;38.20;27.50;;;;;;5027542;23;20917;-85
2021/06/10 12:37:00;;;;;;;4.60;4.50;;;38.40;27.10;;;;;;4937195;29;20455;-89
2021/06/10 12:39:31;;;;;;;4.97;4.87;;;38.90;27.20;;;;;;4250970;29;10000725;-88
2021/06/10 12:41:57;;;;;;;4.93;4.83;;;38.60;27.30;;;;;;4927914;29;20461;-86
2021/06/10 12:44:32;;;;;;;10.50;5.40;;;38.30;27.20;;;;;;4929086;29;20476;-85
2021/06/10 12:47:00;;;;;;;7.63;7.13;;;37.40;26.80;;;;;;4914299;29;20206;-86
2021/06/10 12:49:42;;;;;;;6.03;5.60;;;37.40;27.50;;;;;;4924810;29;20435;-85
2021/06/10 12:52:13;;;;;;;5.13;4.83;;;37.30;27.10;;;;;;4920825;29;20431;-85
2021/06/10 12:54:49;;;;;;;5.73;5.23;;;37.30;26.70;;;;;;4934376;29;20411;-86
2021/06/10 12:57:27;;;;;;;8.17;4.83;;;37.20;27.00;;;;;;4936267;29;20411;-85
2021/06/10 13:00:15;;;;;;;6.00;5.67;;;36.30;27.40;;;;;;4938615;29;20461;-86
2021/06/10 13:02:41;;;;;;;5.40;4.90;;;35.40;28.10;;;;;;4936607;29;20423;-88
2021/06/10 13:05:07;;;;;;;4.90;4.60;;;34.90;28.80;;;;;;4598382;28;10000489;-84
2021/06/10 13:07:38;;;;;;;4.90;4.90;;;34.40;28.80;;;;;;4931807;29;20667;-86
2021/06/10 13:10:09;;;;;;;5.83;5.50;;;33.60;29.20;;;;;;4943257;29;20521;-87
2021/06/10 13:12:49;;;;;;;6.37;6.00;;;33.40;30.20;;;;;;4934120;29;20455;-85
2021/06/10 13:15:22;;;;;;;6.47;6.10;;;33.10;31.20;;;;;;4934566;29;20519;-86
2021/06/10 13:18:00;;;;;;;6.23;5.60;;;32.60;30.80;;;;;;4929752;29;20436;-86
2021/06/10 13:20:41;;;;;;;5.40;5.27;;;32.60;31.10;;;;;;4929936;29;21014;-86
2021/06/10 13:23:07;;;;;;;5.50;5.33;;;32.70;31.40;;;;;;4930111;29;20444;-86
2021/06/10 13:25:32;;;;;;;6.13;5.77;;;34.20;32.30;;;;;;4924118;29;20427;-86
2021/06/10 13:28:19;;;;;;;7.60;7.20;;;33.00;31.70;;;;;;4938984;29;20561;-86
2021/06/10 13:30:46;;;;;;;6.07;5.77;;;34.60;31.60;;;;;;4937574;29;20643;-85